createdAt,value
2018-08-16T00:04:16.123Z,20.60
2018-08-16T00:09:20.008Z,20.50
2018-08-16T00:14:23.670Z,20.50
2018-08-16T00:19:27.375Z,20.40
2018-08-16T00:24:31.136Z,20.30
2018-08-16T00:29:35.057Z,20.30
2018-08-16T00:34:38.730Z,20.20
2018-08-16T00:39:42.442Z,20.10
2018-08-16T00:44:46.128Z,20.10
2018-08-16T00:49:50.360Z,20.00
2018-08-16T00:54:54.071Z,19.90
2018-08-16T00:59:57.783Z,19.90
2018-08-16T01:05:01.536Z,19.90
2018-08-16T01:10:07.088Z,19.70
2018-08-16T01:15:12.478Z,19.60
2018-08-16T01:20:16.303Z,19.70
2018-08-16T01:25:19.939Z,19.60
2018-08-16T01:30:24.153Z,19.60
2018-08-16T01:35:27.856Z,19.60
2018-08-16T01:40:31.558Z,19.40
2018-08-16T01:45:35.283Z,19.40
2018-08-16T01:50:38.972Z,19.30
2018-08-16T01:55:42.676Z,19.20
2018-08-16T02:00:47.121Z,19.20
2018-08-16T02:05:50.796Z,19.20
2018-08-16T02:10:54.568Z,19.10
2018-08-16T02:15:58.190Z,19.10
2018-08-16T02:21:01.885Z,19.00
2018-08-16T02:26:05.541Z,19.00
2018-08-16T02:31:09.187Z,19.00
2018-08-16T02:36:12.993Z,19.00
2018-08-16T02:41:16.689Z,18.90
2018-08-16T02:46:20.676Z,18.90
2018-08-16T02:51:24.341Z,18.80
2018-08-16T02:56:28.247Z,18.80
2018-08-16T03:01:31.908Z,18.70
2018-08-16T03:06:35.869Z,18.60
2018-08-16T03:11:39.665Z,18.60
2018-08-16T03:16:43.351Z,18.50
2018-08-16T03:21:47.052Z,18.50
2018-08-16T03:26:50.635Z,18.50
2018-08-16T03:31:54.682Z,18.50
2018-08-16T03:36:58.480Z,18.40
2018-08-16T03:42:02.432Z,18.40
2018-08-16T03:47:06.092Z,18.40
2018-08-16T03:52:09.714Z,18.40
2018-08-16T03:57:13.405Z,18.40
2018-08-16T04:02:17.126Z,18.30
2018-08-16T04:07:20.736Z,18.30
2018-08-16T04:12:24.330Z,18.20
2018-08-16T04:17:38.143Z,18.20
2018-08-16T04:22:41.803Z,18.10
2018-08-16T04:27:45.767Z,18.10
2018-08-16T04:32:50.543Z,18.10
2018-08-16T04:37:54.313Z,18.10
2018-08-16T04:42:57.939Z,18.10
2018-08-16T04:48:01.773Z,18.10
2018-08-16T04:53:05.519Z,18.20
2018-08-16T04:58:09.373Z,18.20
2018-08-16T05:03:13.056Z,18.20
2018-08-16T05:08:16.633Z,18.30
2018-08-16T05:13:20.203Z,18.30
2018-08-16T05:18:23.830Z,18.30
2018-08-16T05:23:27.451Z,18.40
2018-08-16T05:28:31.079Z,18.50
2018-08-16T05:33:34.790Z,18.60
2018-08-16T05:38:38.473Z,18.60
2018-08-16T05:43:42.247Z,18.80
2018-08-16T05:48:46.518Z,18.90
2018-08-16T05:53:50.152Z,19.00
2018-08-16T05:58:54.773Z,19.10
2018-08-16T06:03:58.407Z,19.30
2018-08-16T06:09:02.042Z,19.50
2018-08-16T06:14:08.092Z,19.60
2018-08-16T06:19:11.711Z,19.80
2018-08-16T06:24:15.431Z,19.90
2018-08-16T06:29:19.090Z,19.90
2018-08-16T06:34:24.247Z,19.90
2018-08-16T06:39:27.964Z,20.10
2018-08-16T06:44:31.711Z,20.10
2018-08-16T06:49:35.789Z,20.30
2018-08-16T06:54:39.488Z,20.50
2018-08-16T06:59:43.301Z,20.70
2018-08-16T07:04:46.939Z,21.00
2018-08-16T07:09:50.563Z,21.10
2018-08-16T07:14:54.227Z,21.20
2018-08-16T07:19:57.845Z,21.50
2018-08-16T07:25:01.456Z,21.60
2018-08-16T07:30:07.327Z,21.60
2018-08-16T07:35:11.368Z,21.60
2018-08-16T07:40:15.004Z,21.60
2018-08-16T07:45:18.676Z,21.90
2018-08-16T07:50:22.431Z,21.70
2018-08-16T07:55:26.216Z,21.70
2018-08-16T08:00:29.942Z,21.60
2018-08-16T08:05:33.584Z,21.60
2018-08-16T08:10:37.251Z,21.80
2018-08-16T08:15:40.890Z,21.80
2018-08-16T08:20:44.539Z,22.10
2018-08-16T08:25:48.192Z,22.50
2018-08-16T08:30:51.867Z,22.50
2018-08-16T08:36:07.079Z,22.70
2018-08-16T08:41:10.839Z,23.10
2018-08-16T08:46:15.786Z,23.30
2018-08-16T08:51:19.467Z,23.50
2018-08-16T08:56:34.189Z,23.70
2018-08-16T09:01:38.621Z,23.70
2018-08-16T09:06:42.361Z,24.00
2018-08-16T09:11:57.507Z,24.40
2018-08-16T09:17:01.171Z,24.60
2018-08-16T09:22:04.995Z,24.70
2018-08-16T09:27:08.648Z,25.10
2018-08-16T09:32:24.158Z,25.20
2018-08-16T09:37:33.087Z,25.40
2018-08-16T09:42:36.884Z,25.70
2018-08-16T09:47:51.853Z,26.10
2018-08-16T09:52:55.570Z,26.50
2018-08-16T09:57:59.413Z,26.70
2018-08-16T10:03:03.115Z,26.80
2018-08-16T10:08:06.848Z,26.80
2018-08-16T10:13:10.488Z,27.00
2018-08-16T10:18:14.111Z,27.50
2018-08-16T10:23:17.776Z,27.80
2018-08-16T10:28:21.359Z,27.70
2018-08-16T10:33:25.378Z,28.20
2018-08-16T10:38:29.649Z,28.40
2018-08-16T10:43:33.819Z,28.90
2018-08-16T10:48:37.594Z,29.30
2018-08-16T10:53:41.948Z,29.10
2018-08-16T10:58:45.744Z,29.10
2018-08-16T11:03:50.286Z,29.20
2018-08-16T11:08:55.173Z,29.40
2018-08-16T11:13:58.905Z,29.60
2018-08-16T11:19:02.662Z,29.20
2018-08-16T11:24:06.852Z,29.10
2018-08-16T11:29:10.487Z,28.70
2018-08-16T11:34:14.216Z,28.70
2018-08-16T11:39:17.935Z,28.90
2018-08-16T11:44:22.013Z,29.50
2018-08-16T11:49:26.051Z,29.70
2018-08-16T11:54:29.821Z,29.90
2018-08-16T11:59:33.914Z,30.20
2018-08-16T12:04:37.972Z,30.30
2018-08-16T12:09:41.783Z,30.30
2018-08-16T12:14:45.583Z,30.20
2018-08-16T12:19:49.222Z,29.90
2018-08-16T12:24:53.196Z,30.10
2018-08-16T12:29:56.823Z,30.20
2018-08-16T12:35:00.551Z,30.10
2018-08-16T12:40:05.331Z,30.30
2018-08-16T12:45:09.108Z,30.40
2018-08-16T12:50:12.949Z,30.50
2018-08-16T12:55:16.724Z,30.50
2018-08-16T13:00:21.264Z,30.60
2018-08-16T13:05:25.206Z,30.90
2018-08-16T13:10:29.042Z,31.00
2018-08-16T13:15:32.687Z,31.40
2018-08-16T13:20:36.332Z,31.90
2018-08-16T13:25:39.984Z,31.90
2018-08-16T13:30:43.626Z,31.90
2018-08-16T13:35:47.560Z,32.20
2018-08-16T13:40:51.283Z,32.20
2018-08-16T13:45:55.055Z,32.00
2018-08-16T13:50:58.842Z,31.90
2018-08-16T13:56:02.576Z,32.20
2018-08-16T14:01:06.310Z,33.20
2018-08-16T14:06:10.172Z,34.30
2018-08-16T14:11:13.996Z,34.50
2018-08-16T14:16:17.773Z,34.30
2018-08-16T14:21:21.380Z,34.20
2018-08-16T14:26:25.320Z,33.90
2018-08-16T14:31:29.131Z,33.90
2018-08-16T14:36:32.797Z,34.10
2018-08-16T14:41:36.454Z,34.10
2018-08-16T14:46:40.218Z,34.10
2018-08-16T14:51:44.121Z,34.30
2018-08-16T14:56:47.756Z,34.40
2018-08-16T15:01:51.610Z,34.10
2018-08-16T15:06:55.632Z,34.10
2018-08-16T15:11:59.467Z,34.20
2018-08-16T15:17:05.319Z,34.40
2018-08-16T15:22:09.086Z,34.40
2018-08-16T15:27:12.756Z,34.10
2018-08-16T15:32:16.760Z,34.10
2018-08-16T15:37:20.496Z,34.10
2018-08-16T15:42:24.332Z,34.20
2018-08-16T15:47:28.923Z,34.00
2018-08-16T15:52:34.490Z,33.80
2018-08-16T15:57:38.690Z,33.80
2018-08-16T16:02:43.437Z,33.70
2018-08-16T16:07:47.201Z,33.50
2018-08-16T16:12:52.377Z,33.30
2018-08-16T16:17:56.032Z,33.20
2018-08-16T16:23:00.255Z,33.00
2018-08-16T16:28:04.643Z,33.00
2018-08-16T16:33:10.433Z,33.00
2018-08-16T16:38:14.393Z,33.20
2018-08-16T16:43:18.164Z,33.10
2018-08-16T16:48:22.332Z,32.90
2018-08-16T16:53:26.208Z,32.70
2018-08-16T16:58:30.259Z,32.80
2018-08-16T17:03:34.077Z,32.60
2018-08-16T17:08:38.106Z,32.40
2018-08-16T17:13:43.087Z,32.20
2018-08-16T17:18:46.952Z,32.20
2018-08-16T17:23:50.702Z,32.20
2018-08-16T17:28:54.380Z,32.20
2018-08-16T17:33:59.112Z,32.20
2018-08-16T17:39:03.157Z,32.40
2018-08-16T17:44:07.367Z,32.30
2018-08-16T17:49:11.108Z,32.40
2018-08-16T17:54:16.209Z,32.20
2018-08-16T17:59:20.248Z,31.90
2018-08-16T18:04:24.128Z,31.90
2018-08-16T18:09:27.802Z,31.80
2018-08-16T18:14:31.769Z,31.50
2018-08-16T18:19:36.404Z,31.30
2018-08-16T18:24:40.268Z,31.00
2018-08-16T18:29:45.052Z,30.70
2018-08-16T18:34:52.575Z,30.40
2018-08-16T18:39:56.812Z,30.10
2018-08-16T18:45:00.639Z,29.90
2018-08-16T18:50:06.998Z,29.60
2018-08-16T18:55:12.553Z,29.30
2018-08-16T19:00:18.421Z,29.00
2018-08-16T19:05:22.174Z,28.70
2018-08-16T19:10:25.955Z,28.50
2018-08-16T19:15:29.643Z,28.20
2018-08-16T19:20:33.391Z,28.00
2018-08-16T19:25:37.520Z,27.70
2018-08-16T19:30:41.914Z,27.50
2018-08-16T19:35:45.939Z,27.30
2018-08-16T19:40:49.694Z,27.10
2018-08-16T19:45:56.341Z,26.90
2018-08-16T19:51:00.101Z,26.70
2018-08-16T19:56:03.984Z,26.50
2018-08-16T20:01:08.496Z,26.40
2018-08-16T20:06:13.081Z,26.20
2018-08-16T20:11:16.724Z,25.90
2018-08-16T20:16:20.496Z,25.80
2018-08-16T20:21:24.254Z,25.70
2018-08-16T20:26:28.025Z,25.50
2018-08-16T20:31:31.817Z,25.30
2018-08-16T20:36:36.171Z,25.20
2018-08-16T20:41:39.761Z,25.10
2018-08-16T20:46:43.514Z,25.00
2018-08-16T20:51:47.245Z,24.90
2018-08-16T20:56:50.977Z,24.80
2018-08-16T21:01:54.575Z,24.60
2018-08-16T21:06:58.378Z,24.50
2018-08-16T21:12:02.405Z,24.40
2018-08-16T21:17:06.704Z,24.30
2018-08-16T21:22:10.677Z,24.10
2018-08-16T21:27:14.268Z,24.10
2018-08-16T21:32:17.861Z,24.00
2018-08-16T21:37:21.532Z,24.00
2018-08-16T21:42:25.123Z,23.90
2018-08-16T21:47:29.036Z,23.90
2018-08-16T21:52:32.703Z,23.80
2018-08-16T21:57:36.798Z,23.70
2018-08-16T22:02:40.876Z,23.50
2018-08-16T22:08:17.247Z,23.40
2018-08-16T22:13:20.850Z,23.30
2018-08-16T22:18:24.429Z,23.10
2018-08-16T22:23:28.035Z,23.00
2018-08-16T22:28:32.491Z,23.00
2018-08-16T22:33:37.230Z,22.90
2018-08-16T22:38:41.639Z,22.80
2018-08-16T22:43:45.283Z,22.60
2018-08-16T22:48:48.949Z,22.50
2018-08-16T22:53:52.858Z,22.50
2018-08-16T22:58:56.499Z,22.40
2018-08-16T23:04:00.272Z,22.20
2018-08-16T23:09:05.820Z,22.20
2018-08-16T23:14:09.399Z,22.20
2018-08-16T23:19:12.976Z,22.10
2018-08-16T23:24:17.284Z,22.00
2018-08-16T23:29:21.833Z,22.00
2018-08-16T23:34:25.660Z,22.00
2018-08-16T23:39:29.471Z,22.00
2018-08-16T23:44:33.699Z,21.80
2018-08-16T23:49:37.263Z,21.80
2018-08-16T23:54:41.530Z,21.70
2018-08-16T23:59:45.184Z,21.70
